Portland, Oregon
Traffic Map
Current Weather Conditions
Portland, Oregon
Few Clouds
Few Clouds
77°
Feels Like: 78°
Wind Chill: 77° Ceiling: Unl
Heat Index: 78° Visibility: 10mi
Dew Point: 52° Wind: 10mph
Humidity: 42% Direction: 310° (NW)
Pressure: 30.07in Gusts: 0mph
Raw Report DataKPDX 252253Z 31009KT 10SM FEW035 25/11 A3007 RMK AO2 SLP182 T02500111
Traffic Incident Summary
Active as of:
Severity:
Category:
InformationThere was an issue retrieving the traffic information for this location. Please try a different location or try again shortly.
Advertisements
Track Severe Weather on mobile